Time;durP1;ratioP1;P1;durP2;ratioP2;P2;SDS_P1;SDS_P2;PMS_P1;PMS_P2;Temp;Humidity;BMP_temperature;BMP_pressure;BME280_temperature;BME280_humidity;BME280_pressure;Samples;Min_cycle;Max_cycle;Signal;HPM_P1;HPM_P2
2024/03/09 00:00:42;;;;;;;50.22;16.45;;;10.00;93.50;;;;;;5048274;28;20044;-51
2024/03/09 00:03:08;;;;;;;49.17;15.38;;;10.00;93.50;;;;;;5032843;28;20505;-51
2024/03/09 00:05:34;;;;;;;52.67;14.63;;;10.00;93.50;;;;;;5048051;28;20043;-51
2024/03/09 00:08:02;;;;;;;51.53;14.13;;;10.00;93.50;;;;;;5031513;28;20048;-51
2024/03/09 00:10:28;;;;;;;51.22;15.45;;;10.00;93.60;;;;;;5066027;28;20028;-51
2024/03/09 00:12:54;;;;;;;53.25;14.57;;;9.90;93.60;;;;;;5048126;28;20033;-52
2024/03/09 00:15:21;;;;;;;47.55;14.20;;;9.90;93.60;;;;;;5065814;28;20157;-51
2024/03/09 00:17:48;;;;;;;50.92;14.70;;;9.90;93.60;;;;;;5031729;28;20033;-51
2024/03/09 00:20:21;;;;;;;37.72;13.70;;;9.90;93.60;;;;;;5065958;28;20060;-51
2024/03/09 00:22:50;;;;;;;55.92;14.82;;;9.90;93.60;;;;;;5049027;28;20033;-51
2024/03/09 00:25:16;;;;;;;52.88;15.13;;;9.90;93.70;;;;;;5069109;28;20120;-51
2024/03/09 00:27:41;;;;;;;46.97;14.50;;;9.90;93.70;;;;;;5051992;28;20467;-51
2024/03/09 00:30:20;;;;;;;39.45;14.15;;;9.90;93.70;;;;;;5069703;28;20040;-51
2024/03/09 00:32:48;;;;;;;35.88;14.35;;;9.90;93.70;;;;;;5069766;28;20048;-52
2024/03/09 00:35:13;;;;;;;41.90;14.38;;;9.90;93.70;;;;;;5051637;28;20360;-51
2024/03/09 00:37:40;;;;;;;34.53;13.18;;;9.90;93.70;;;;;;5051473;28;20033;-51
2024/03/09 00:40:08;;;;;;;37.42;13.75;;;9.90;93.80;;;;;;5051480;28;20037;-51
2024/03/09 00:42:37;;;;;;;40.97;13.82;;;9.80;93.70;;;;;;5035343;28;20025;-51
2024/03/09 00:45:04;;;;;;;48.33;13.07;;;9.80;93.70;;;;;;5035522;28;20037;-51
2024/03/09 00:47:34;;;;;;;40.75;14.93;;;9.80;93.80;;;;;;5069029;28;20079;-51
2024/03/09 00:50:00;;;;;;;44.10;14.15;;;9.80;93.80;;;;;;5051818;28;20052;-51
2024/03/09 00:52:25;;;;;;;43.60;13.80;;;9.80;93.80;;;;;;5051104;28;20032;-51
2024/03/09 00:54:53;;;;;;;38.22;13.50;;;9.80;93.80;;;;;;5034612;28;20029;-51
2024/03/09 00:57:19;;;;;;;39.03;13.43;;;9.80;93.80;;;;;;5051604;28;20071;-51
2024/03/09 00:59:45;;;;;;;41.88;13.48;;;9.80;93.80;;;;;;5051317;28;20029;-51
2024/03/09 01:02:11;;;;;;;39.60;14.15;;;9.80;93.80;;;;;;5051110;28;20025;-51
2024/03/09 01:04:36;;;;;;;44.80;13.52;;;9.70;93.80;;;;;;5034593;28;20017;-51
2024/03/09 01:07:02;;;;;;;43.75;14.18;;;9.70;93.80;;;;;;5068993;28;20028;-51
2024/03/09 01:09:28;;;;;;;34.03;13.18;;;9.70;93.90;;;;;;5068776;28;20032;-51
2024/03/09 01:11:56;;;;;;;41.80;13.13;;;9.70;94.20;;;;;;5051032;28;20391;-51
2024/03/09 01:14:25;;;;;;;40.38;13.68;;;9.70;93.90;;;;;;5051052;28;20108;-52
2024/03/09 01:16:51;;;;;;;36.47;13.23;;;9.70;93.90;;;;;;5068931;28;20025;-52
2024/03/09 01:19:18;;;;;;;34.97;12.68;;;9.70;93.90;;;;;;5050863;28;20027;-52
2024/03/09 01:21:46;;;;;;;32.92;13.25;;;9.70;93.90;;;;;;5051254;28;20036;-52
2024/03/09 01:24:12;;;;;;;42.42;14.23;;;9.70;93.90;;;;;;5051045;28;20074;-52
2024/03/09 01:26:40;;;;;;;34.92;12.63;;;9.70;94.00;;;;;;5034308;28;20038;-51
2024/03/09 01:29:07;;;;;;;29.15;11.88;;;9.70;94.00;;;;;;5051078;28;20037;-51
2024/03/09 01:31:34;;;;;;;34.65;12.45;;;9.60;94.00;;;;;;5068695;28;20028;-52
2024/03/09 01:34:00;;;;;;;37.95;13.35;;;9.60;94.00;;;;;;5050981;28;20025;-52
2024/03/09 01:36:25;;;;;;;34.28;12.88;;;9.60;94.00;;;;;;5017272;28;20414;-51
2024/03/09 01:38:53;;;;;;;34.70;12.27;;;9.60;94.00;;;;;;5068700;28;20029;-52
2024/03/09 01:41:19;;;;;;;37.42;13.18;;;9.60;94.10;;;;;;5034199;28;20044;-51
2024/03/09 01:43:46;;;;;;;31.35;12.00;;;9.60;94.00;;;;;;5050470;28;20025;-52
2024/03/09 01:46:11;;;;;;;31.20;13.43;;;9.60;94.10;;;;;;5034405;28;20040;-51
2024/03/09 01:48:40;;;;;;;33.95;13.35;;;9.60;94.10;;;;;;5034004;28;20033;-52
2024/03/09 01:51:07;;;;;;;29.92;12.45;;;9.50;94.00;;;;;;5034719;28;20111;-52
2024/03/09 01:53:33;;;;;;;26.30;11.70;;;9.50;94.10;;;;;;5034172;28;20029;-52
2024/03/09 01:56:00;;;;;;;36.03;13.23;;;9.50;94.10;;;;;;5033592;28;20048;-52
2024/03/09 01:58:26;;;;;;;31.42;12.93;;;9.50;94.10;;;;;;5034128;28;20029;-52
2024/03/09 02:00:56;;;;;;;31.58;11.85;;;9.50;94.10;;;;;;5050183;28;20033;-52
2024/03/09 02:03:24;;;;;;;30.85;12.75;;;9.50;94.10;;;;;;5067894;28;20025;-52
2024/03/09 02:05:50;;;;;;;35.38;12.60;;;9.50;94.20;;;;;;5050190;28;20029;-52
2024/03/09 02:08:19;;;;;;;30.98;11.85;;;9.40;94.20;;;;;;5067676;28;20029;-52
2024/03/09 02:10:45;;;;;;;30.13;13.82;;;9.40;94.20;;;;;;5067765;28;20033;-51
2024/03/09 02:13:10;;;;;;;29.65;12.38;;;9.40;94.20;;;;;;5033428;28;20017;-51
2024/03/09 02:15:38;;;;;;;28.50;12.45;;;9.40;94.20;;;;;;5033257;28;20066;-52
2024/03/09 02:18:07;;;;;;;29.95;12.48;;;9.40;94.30;;;;;;5050116;28;20025;-52
2024/03/09 02:20:37;;;;;;;26.90;12.18;;;9.40;94.30;;;;;;5049687;28;20097;-52
2024/03/09 02:23:02;;;;;;;29.92;12.32;;;9.40;94.30;;;;;;5033416;28;20024;-52
2024/03/09 02:25:29;;;;;;;30.92;13.10;;;9.40;94.30;;;;;;5033084;28;20040;-52
2024/03/09 02:27:55;;;;;;;27.42;12.27;;;9.40;94.30;;;;;;5033104;28;20025;-52
2024/03/09 02:30:21;;;;;;;30.92;12.63;;;9.40;94.30;;;;;;5049680;28;20051;-51
2024/03/09 02:32:50;;;;;;;30.35;12.32;;;9.30;94.40;;;;;;5067453;28;20040;-51
2024/03/09 02:35:17;;;;;;;25.17;12.65;;;9.30;94.40;;;;;;5067433;28;20075;-51
2024/03/09 02:37:43;;;;;;;25.50;11.95;;;9.30;94.40;;;;;;5033063;28;20031;-52
2024/03/09 02:40:11;;;;;;;26.55;12.52;;;9.30;94.40;;;;;;5049318;28;20028;-52
2024/03/09 02:43:03;;;;;;;25.88;12.27;;;9.30;94.50;;;;;;5067325;28;20044;-51
2024/03/09 02:45:23;;;;;;;27.95;12.52;;;9.30;94.50;;;;;;5066376;28;20037;-51
2024/03/09 02:47:49;;;;;;;26.73;11.95;;;9.20;94.60;;;;;;5066219;28;20052;-51
2024/03/09 02:50:14;;;;;;;23.52;12.82;;;9.20;94.60;;;;;;5049145;28;20509;-51
2024/03/09 02:52:40;;;;;;;29.23;12.88;;;9.20;94.60;;;;;;5049176;28;20071;-51
2024/03/09 02:55:06;;;;;;;27.75;11.98;;;9.20;94.60;;;;;;5049138;28;20041;-52
2024/03/09 02:57:31;;;;;;;31.20;12.68;;;9.20;94.60;;;;;;5049244;28;20075;-52
2024/03/09 02:59:57;;;;;;;25.48;11.75;;;9.20;94.60;;;;;;5048987;28;20058;-52
2024/03/09 03:05:07;;;;;;;28.02;12.55;;;9.10;94.60;;;;;;5051511;28;20036;-52
2024/03/09 03:07:32;;;;;;;29.83;12.65;;;9.10;94.60;;;;;;5049715;28;20471;-51
2024/03/09 03:09:58;;;;;;;21.00;11.98;;;9.10;94.60;;;;;;5066624;28;20091;-52
2024/03/09 03:12:26;;;;;;;26.15;12.95;;;9.10;94.70;;;;;;5049330;28;20025;-51
2024/03/09 03:14:51;;;;;;;25.17;12.82;;;9.10;94.70;;;;;;5049177;28;20088;-51
2024/03/09 03:17:17;;;;;;;18.42;11.25;;;9.10;94.70;;;;;;5015756;28;20025;-52
2024/03/09 03:19:43;;;;;;;24.70;11.18;;;9.10;94.70;;;;;;5048883;28;20033;-52
2024/03/09 03:22:10;;;;;;;25.58;13.13;;;9.10;94.70;;;;;;5048808;28;20025;-51
2024/03/09 03:24:35;;;;;;;25.15;13.10;;;9.10;94.70;;;;;;5066405;28;20060;-52
2024/03/09 03:27:01;;;;;;;23.38;11.98;;;9.00;94.70;;;;;;5066479;28;20013;-52
2024/03/09 03:29:27;;;;;;;21.45;12.10;;;9.00;94.70;;;;;;5066395;28;20482;-52
2024/03/09 03:31:56;;;;;;;21.60;12.25;;;9.00;94.70;;;;;;5066568;28;20025;-51
2024/03/09 03:34:22;;;;;;;25.80;12.05;;;9.00;94.80;;;;;;5066527;28;20104;-52
2024/03/09 03:36:47;;;;;;;15.23;10.80;;;9.00;94.80;;;;;;5066189;28;20498;-52
2024/03/09 03:39:13;;;;;;;22.73;11.60;;;9.00;94.80;;;;;;5048390;28;20053;-51
2024/03/09 03:41:39;;;;;;;25.15;12.75;;;8.90;94.80;;;;;;5066349;28;20044;-52
2024/03/09 03:44:05;;;;;;;27.85;12.45;;;8.90;94.80;;;;;;5066521;28;20479;-52
2024/03/09 03:46:31;;;;;;;22.13;11.43;;;8.90;94.80;;;;;;5048252;28;20032;-51
2024/03/09 03:48:56;;;;;;;20.75;11.95;;;8.90;94.90;;;;;;5048507;28;20025;-51
2024/03/09 03:51:22;;;;;;;19.65;13.07;;;8.80;94.90;;;;;;5066391;28;20039;-52
2024/03/09 03:53:48;;;;;;;21.60;12.55;;;8.80;95.00;;;;;;5066219;28;20044;-51
2024/03/09 03:56:13;;;;;;;24.42;12.43;;;8.80;95.00;;;;;;5066381;28;20109;-51
2024/03/09 03:58:39;;;;;;;18.50;12.80;;;8.80;95.10;;;;;;5050709;28;20021;-52
2024/03/09 04:01:05;;;;;;;24.13;13.00;;;8.80;95.00;;;;;;5068516;28;20045;-52
2024/03/09 04:03:37;;;;;;;19.65;12.20;;;8.80;95.00;;;;;;5054887;28;20021;-51
2024/03/09 04:06:03;;;;;;;23.20;12.77;;;8.80;95.00;;;;;;5053232;28;20033;-52
2024/03/09 04:08:28;;;;;;;19.83;12.20;;;8.80;95.00;;;;;;5035760;28;20029;-51
2024/03/09 04:10:57;;;;;;;23.88;13.15;;;8.80;95.00;;;;;;5070068;28;20029;-51
2024/03/09 04:13:24;;;;;;;17.77;13.10;;;8.80;95.10;;;;;;5052041;28;20080;-51
2024/03/09 04:15:55;;;;;;;20.70;12.63;;;8.70;95.10;;;;;;5052452;28;20033;-52
2024/03/09 04:18:25;;;;;;;20.02;12.80;;;8.70;95.20;;;;;;5052823;28;20017;-51
2024/03/09 04:20:53;;;;;;;20.38;12.55;;;8.70;95.20;;;;;;5070108;28;20090;-51
2024/03/09 04:23:21;;;;;;;18.70;11.57;;;8.70;95.20;;;;;;5052317;28;20043;-51
2024/03/09 04:25:46;;;;;;;19.48;12.63;;;8.70;95.20;;;;;;5035505;28;20041;-52
2024/03/09 04:28:16;;;;;;;18.17;12.43;;;8.70;95.30;;;;;;5069705;28;20039;-51
2024/03/09 04:30:44;;;;;;;19.75;12.50;;;8.60;95.30;;;;;;5069731;28;20482;-52
2024/03/09 04:33:11;;;;;;;20.90;12.60;;;8.60;95.30;;;;;;5069769;28;20025;-51
2024/03/09 04:35:37;;;;;;;21.80;12.98;;;8.70;95.30;;;;;;5051847;28;20052;-51
2024/03/09 04:38:03;;;;;;;24.10;12.65;;;8.60;95.30;;;;;;5051846;28;20056;-52
2024/03/09 04:40:30;;;;;;;22.23;12.18;;;8.60;95.30;;;;;;5051678;28;20066;-52
2024/03/09 04:42:56;;;;;;;18.50;11.75;;;8.60;95.30;;;;;;5051722;28;20029;-52
2024/03/09 04:45:30;;;;;;;25.00;12.10;;;8.60;95.40;;;;;;5051700;28;20119;-51
2024/03/09 04:47:59;;;;;;;19.15;12.10;;;8.60;95.30;;;;;;5053748;28;20094;-51
2024/03/09 04:50:25;;;;;;;20.25;12.07;;;8.50;95.30;;;;;;5035501;28;20056;-52
2024/03/09 04:52:51;;;;;;;19.52;13.38;;;8.50;95.30;;;;;;5034850;28;20097;-52
2024/03/09 04:55:21;;;;;;;17.30;11.80;;;8.50;95.30;;;;;;5069082;28;20029;-51
2024/03/09 04:57:48;;;;;;;18.60;11.80;;;8.50;95.30;;;;;;5069338;28;20029;-51
2024/03/09 05:00:15;;;;;;;19.30;11.65;;;8.50;95.30;;;;;;5051197;28;20029;-51
2024/03/09 05:02:47;;;;;;;20.83;12.88;;;8.50;95.40;;;;;;5034567;28;20025;-51
2024/03/09 05:05:14;;;;;;;22.23;12.35;;;8.40;95.40;;;;;;5051172;28;20051;-51
2024/03/09 05:07:48;;;;;;;28.70;13.20;;;8.50;95.40;;;;;;5034542;28;20033;-51
2024/03/09 05:10:23;;;;;;;17.02;11.73;;;8.40;95.40;;;;;;5050888;28;20024;-51
2024/03/09 05:12:56;;;;;;;18.88;11.73;;;8.40;95.40;;;;;;5052379;28;20445;-51
2024/03/09 05:15:30;;;;;;;18.38;12.13;;;8.40;95.40;;;;;;5051055;28;20029;-52
2024/03/09 05:18:03;;;;;;;21.47;12.90;;;8.40;95.40;;;;;;5052374;28;20499;-52
2024/03/09 05:20:28;;;;;;;19.35;12.73;;;8.40;95.40;;;;;;5034624;28;20275;-52
2024/03/09 05:22:54;;;;;;;18.33;12.95;;;8.30;95.40;;;;;;5034640;28;20052;-51
2024/03/09 05:25:21;;;;;;;20.52;12.82;;;8.30;95.50;;;;;;5068941;28;20052;-51
2024/03/09 05:27:47;;;;;;;17.98;11.93;;;8.30;95.40;;;;;;5069185;28;20043;-51
2024/03/09 05:30:18;;;;;;;18.60;12.38;;;8.30;95.50;;;;;;5034291;28;20051;-51
2024/03/09 05:32:54;;;;;;;21.88;12.05;;;8.30;95.50;;;;;;5035056;28;20029;-51
2024/03/09 05:35:20;;;;;;;19.92;12.35;;;8.30;95.50;;;;;;5051592;28;20029;-51
2024/03/09 05:37:49;;;;;;;18.25;12.90;;;8.20;95.50;;;;;;5033844;28;20483;-52
2024/03/09 05:40:15;;;;;;;17.38;12.07;;;8.30;95.50;;;;;;5034851;28;20116;-51
2024/03/09 05:42:47;;;;;;;17.25;12.55;;;8.20;95.50;;;;;;5050663;28;20029;-51
2024/03/09 05:45:20;;;;;;;19.65;12.02;;;8.20;95.50;;;;;;5068330;28;20037;-51
2024/03/09 05:47:50;;;;;;;19.52;11.90;;;8.20;95.50;;;;;;5019440;28;20025;-51
2024/03/09 05:50:19;;;;;;;18.65;11.63;;;8.20;95.60;;;;;;5050631;28;20048;-51
2024/03/09 05:52:49;;;;;;;18.77;12.40;;;8.20;95.60;;;;;;5050991;28;20491;-51
2024/03/09 05:55:19;;;;;;;17.95;12.57;;;8.20;95.50;;;;;;5033797;28;20033;-51
2024/03/09 05:57:48;;;;;;;17.90;12.95;;;8.20;95.50;;;;;;5068192;28;20029;-51
2024/03/09 06:00:28;;;;;;;20.95;12.48;;;8.20;95.60;;;;;;5050760;28;20036;-51
2024/03/09 06:02:56;;;;;;;19.90;12.30;;;8.20;95.50;;;;;;5035679;28;20017;-51
2024/03/09 06:05:22;;;;;;;16.65;11.90;;;8.20;95.50;;;;;;5067922;28;20063;-51
2024/03/09 06:07:48;;;;;;;18.17;13.10;;;8.20;95.50;;;;;;5033620;28;20036;-51
2024/03/09 06:10:16;;;;;;;19.70;13.65;;;8.20;95.50;;;;;;5050099;28;20029;-52
2024/03/09 06:12:44;;;;;;;19.15;13.18;;;8.20;95.50;;;;;;5050254;28;20025;-51
2024/03/09 06:15:14;;;;;;;19.02;13.07;;;8.20;95.50;;;;;;5050067;28;20088;-51
2024/03/09 06:17:41;;;;;;;22.48;13.27;;;8.20;95.40;;;;;;5050783;28;20444;-52
2024/03/09 06:20:08;;;;;;;21.15;12.48;;;8.20;95.40;;;;;;5050319;28;20052;-51
2024/03/09 06:22:34;;;;;;;19.80;13.35;;;8.20;95.50;;;;;;5048895;28;20021;-51
2024/03/09 06:25:00;;;;;;;32.55;14.82;;;8.20;95.50;;;;;;5049881;28;20029;-52
2024/03/09 06:27:27;;;;;;;23.27;14.13;;;8.20;95.50;;;;;;5067584;28;20035;-51
2024/03/09 06:29:56;;;;;;;25.17;13.65;;;8.20;95.50;;;;;;5033590;28;20045;-51
2024/03/09 06:32:25;;;;;;;23.13;13.45;;;8.20;95.50;;;;;;5033942;28;20041;-52
2024/03/09 06:34:54;;;;;;;24.17;13.80;;;8.10;95.50;;;;;;5049905;28;20096;-52
2024/03/09 06:37:20;;;;;;;23.75;13.55;;;8.20;95.60;;;;;;5067276;28;20039;-51
2024/03/09 06:39:46;;;;;;;25.63;13.52;;;8.10;95.50;;;;;;5049472;28;20033;-51
2024/03/09 06:42:11;;;;;;;29.25;14.27;;;8.10;95.50;;;;;;5067234;28;20104;-51
2024/03/09 06:44:37;;;;;;;25.88;14.10;;;8.10;95.50;;;;;;5049389;28;20048;-52
2024/03/09 06:47:06;;;;;;;24.77;14.18;;;8.10;95.50;;;;;;5049335;28;20360;-52
2024/03/09 06:49:35;;;;;;;30.98;14.32;;;8.10;95.60;;;;;;5048866;28;20029;-52
2024/03/09 06:52:02;;;;;;;32.90;14.77;;;8.10;95.50;;;;;;5033532;28;20039;-52
2024/03/09 06:54:29;;;;;;;32.63;14.90;;;8.10;95.60;;;;;;5048823;28;20061;-52
2024/03/09 06:56:55;;;;;;;30.20;15.68;;;8.20;95.60;;;;;;5049131;28;20491;-51
2024/03/09 06:59:20;;;;;;;46.85;16.05;;;8.10;95.70;;;;;;5049257;28;20091;-52
2024/03/09 07:01:46;;;;;;;49.17;18.20;;;8.10;95.70;;;;;;5049313;28;20394;-52
2024/03/09 07:04:13;;;;;;;50.05;17.27;;;8.10;95.70;;;;;;5066958;28;20036;-52
2024/03/09 07:06:39;;;;;;;47.22;15.82;;;8.10;95.80;;;;;;5049426;28;20434;-51
2024/03/09 07:09:11;;;;;;;49.00;16.50;;;8.10;95.80;;;;;;5048652;28;20021;-51
2024/03/09 07:11:37;;;;;;;45.53;15.75;;;8.10;95.90;;;;;;5066857;28;20045;-52
2024/03/09 07:14:03;;;;;;;52.33;17.38;;;8.10;95.90;;;;;;5032622;28;20036;-52
2024/03/09 07:16:29;;;;;;;45.40;16.67;;;8.10;96.10;;;;;;5067501;28;20029;-52
2024/03/09 07:18:56;;;;;;;49.40;16.65;;;8.10;96.30;;;;;;5067890;28;20024;-52
2024/03/09 07:21:23;;;;;;;53.42;17.17;;;8.10;96.20;;;;;;5048762;28;20120;-51
2024/03/09 07:23:49;;;;;;;49.47;16.48;;;8.10;96.20;;;;;;5049199;28;20028;-52
2024/03/09 07:26:15;;;;;;;40.00;16.98;;;8.10;96.20;;;;;;5048903;28;20513;-51
2024/03/09 07:28:41;;;;;;;45.10;16.73;;;8.10;96.10;;;;;;5032102;28;20048;-51
2024/03/09 07:31:06;;;;;;;52.03;16.70;;;8.10;96.10;;;;;;5048621;28;20056;-51
2024/03/09 07:33:32;;;;;;;37.40;16.70;;;8.10;96.10;;;;;;5048426;28;20020;-51
2024/03/09 07:35:59;;;;;;;44.10;17.35;;;8.10;96.00;;;;;;5048619;28;20075;-51
2024/03/09 07:38:24;;;;;;;57.35;17.67;;;8.10;96.10;;;;;;5048950;28;20033;-51
2024/03/09 07:40:50;;;;;;;41.63;16.13;;;8.10;96.10;;;;;;5066385;28;20037;-52
2024/03/09 07:43:19;;;;;;;51.40;17.25;;;8.10;96.10;;;;;;5048634;28;20029;-51
2024/03/09 07:45:45;;;;;;;37.30;16.65;;;8.10;96.10;;;;;;5032675;28;20037;-51
2024/03/09 07:48:16;;;;;;;39.58;17.45;;;8.10;96.10;;;;;;5048446;28;20048;-51
2024/03/09 07:50:48;;;;;;;56.38;17.95;;;8.10;96.10;;;;;;5032168;28;20092;-51
2024/03/09 07:53:13;;;;;;;42.17;16.90;;;8.10;96.10;;;;;;5049248;28;20055;-52
2024/03/09 07:55:39;;;;;;;37.63;15.98;;;8.10;96.00;;;;;;5066567;28;20104;-52
2024/03/09 07:58:05;;;;;;;41.85;16.70;;;8.10;96.00;;;;;;5031691;28;20040;-51
2024/03/09 08:00:36;;;;;;;48.08;17.33;;;8.10;96.00;;;;;;5048314;28;20089;-51
2024/03/09 08:03:02;;;;;;;45.00;17.35;;;8.10;96.00;;;;;;5066242;28;20025;-52
2024/03/09 08:05:31;;;;;;;38.47;15.18;;;8.10;96.10;;;;;;5031793;28;20021;-51
2024/03/09 08:07:57;;;;;;;37.45;15.88;;;8.10;96.00;;;;;;5032621;28;20037;-52
2024/03/09 08:10:24;;;;;;;47.03;17.27;;;8.10;96.30;;;;;;5066062;28;20025;-51
2024/03/09 08:12:50;;;;;;;50.63;17.35;;;8.10;96.00;;;;;;5048221;28;20033;-52
2024/03/09 08:15:16;;;;;;;42.45;16.33;;;8.10;96.00;;;;;;5031684;28;20025;-51
2024/03/09 08:17:48;;;;;;;37.80;16.20;;;8.10;96.10;;;;;;5048192;28;20036;-51
2024/03/09 08:20:14;;;;;;;40.58;16.98;;;8.10;96.00;;;;;;5048361;28;20525;-51
2024/03/09 08:22:45;;;;;;;55.25;17.25;;;8.10;96.00;;;;;;5065897;28;20025;-51
2024/03/09 08:25:11;;;;;;;38.20;16.48;;;8.10;96.00;;;;;;5065894;28;20040;-52
2024/03/09 08:27:38;;;;;;;36.30;15.40;;;8.10;96.00;;;;;;5031410;28;20029;-52
2024/03/09 08:30:05;;;;;;;51.55;16.52;;;8.10;96.00;;;;;;5031424;28;20487;-52
2024/03/09 08:32:32;;;;;;;48.50;17.30;;;8.10;96.00;;;;;;5065693;28;20434;-51
2024/03/09 08:34:58;;;;;;;38.38;16.25;;;8.10;96.00;;;;;;5048136;28;20104;-51
2024/03/09 08:37:25;;;;;;;36.85;15.23;;;8.10;95.90;;;;;;5047745;28;20079;-51
2024/03/09 08:39:51;;;;;;;33.97;15.80;;;8.10;95.90;;;;;;5048116;28;20033;-52
2024/03/09 08:42:18;;;;;;;33.72;15.57;;;8.10;95.90;;;;;;5032099;28;20117;-51
2024/03/09 08:44:44;;;;;;;36.25;15.27;;;8.20;95.90;;;;;;5066449;28;20033;-51
2024/03/09 08:47:10;;;;;;;33.55;16.67;;;8.10;95.90;;;;;;5034973;28;20033;-52
2024/03/09 08:49:36;;;;;;;32.72;14.77;;;8.20;95.90;;;;;;5051473;28;20025;-52
2024/03/09 08:52:02;;;;;;;35.42;17.02;;;8.20;95.90;;;;;;5051487;28;20029;-51
2024/03/09 08:54:31;;;;;;;25.58;14.38;;;8.20;95.90;;;;;;5034892;28;20028;-51
2024/03/09 08:56:57;;;;;;;39.25;15.68;;;8.20;95.90;;;;;;5069095;28;20033;-51
2024/03/09 08:59:23;;;;;;;33.42;15.63;;;8.20;95.90;;;;;;5067682;28;20059;-52
2024/03/09 09:01:49;;;;;;;33.13;15.45;;;8.20;95.90;;;;;;5049166;28;20037;-52
2024/03/09 09:04:15;;;;;;;31.98;16.40;;;8.20;95.90;;;;;;5015920;28;20049;-51
2024/03/09 09:06:41;;;;;;;41.05;15.90;;;8.20;95.90;;;;;;5033041;28;20025;-52
2024/03/09 09:09:16;;;;;;;34.05;15.63;;;8.20;96.00;;;;;;5033722;28;20029;-52
2024/03/09 09:11:42;;;;;;;41.83;16.45;;;8.20;96.10;;;;;;5019417;28;20052;-51
2024/03/09 09:14:08;;;;;;;36.13;15.80;;;8.20;96.20;;;;;;5048681;28;20025;-52
2024/03/09 09:16:34;;;;;;;41.30;16.85;;;8.20;96.20;;;;;;5032217;28;20031;-52
2024/03/09 09:18:59;;;;;;;42.13;16.02;;;8.30;96.30;;;;;;5067597;28;20036;-51
2024/03/09 09:21:25;;;;;;;38.85;15.80;;;8.30;96.30;;;;;;5034160;28;20025;-51
2024/03/09 09:23:51;;;;;;;40.42;15.80;;;8.30;96.30;;;;;;5034304;28;20039;-51
2024/03/09 09:26:16;;;;;;;37.33;16.58;;;8.30;96.20;;;;;;5050450;28;20055;-51
2024/03/09 09:28:42;;;;;;;45.10;16.83;;;8.30;96.30;;;;;;5050131;28;20044;-51
2024/03/09 09:31:08;;;;;;;35.28;16.80;;;8.30;96.30;;;;;;5017523;28;20120;-51
2024/03/09 09:33:33;;;;;;;47.83;17.23;;;8.40;96.30;;;;;;5068319;28;20064;-51
2024/03/09 09:35:59;;;;;;;42.50;16.40;;;8.40;96.40;;;;;;5033455;28;20040;-51
2024/03/09 09:38:26;;;;;;;50.60;17.23;;;8.40;96.50;;;;;;5067496;28;20182;-51
2024/03/09 09:40:51;;;;;;;37.60;16.38;;;8.40;96.40;;;;;;5065647;28;20025;-51
2024/03/09 09:43:18;;;;;;;58.38;17.27;;;8.40;96.40;;;;;;5032677;28;20049;-52
2024/03/09 09:45:45;;;;;;;53.85;19.33;;;8.40;96.40;;;;;;5061924;28;20024;-52
2024/03/09 09:48:11;;;;;;;41.70;18.42;;;8.50;96.50;;;;;;5033248;28;20033;-52
2024/03/09 09:50:36;;;;;;;60.38;18.13;;;8.60;96.60;;;;;;5032798;28;20601;-51
2024/03/09 09:53:07;;;;;;;53.90;16.92;;;8.50;96.60;;;;;;5027980;28;20036;-52
2024/03/09 09:55:37;;;;;;;61.85;19.75;;;8.60;96.70;;;;;;5046339;28;20052;-52
2024/03/09 09:58:06;;;;;;;79.00;20.10;;;8.60;96.80;;;;;;5028240;28;20045;-51
2024/03/09 10:00:31;;;;;;;84.78;19.95;;;8.60;96.80;;;;;;5046697;28;20029;-52
2024/03/09 10:03:00;;;;;;;87.53;20.15;;;8.70;96.90;;;;;;5046917;28;20448;-52
2024/03/09 10:05:28;;;;;;;115.22;22.10;;;8.70;97.10;;;;;;5029550;28;20543;-52
2024/03/09 10:08:06;;;;;;;81.68;19.90;;;8.70;97.30;;;;;;5029665;28;20084;-51
2024/03/09 10:10:32;;;;;;;82.22;21.40;;;8.80;97.30;;;;;;5036913;28;20028;-51
2024/03/09 10:13:11;;;;;;;103.20;21.10;;;8.80;97.20;;;;;;5067842;28;20162;-52
2024/03/09 10:15:40;;;;;;;76.47;20.90;;;8.90;97.30;;;;;;5067456;28;20044;-52
2024/03/09 10:18:06;;;;;;;109.43;21.27;;;9.00;97.20;;;;;;5049783;28;20402;-52
2024/03/09 10:20:33;;;;;;;94.45;22.77;;;9.00;97.30;;;;;;5066285;28;20064;-51
2024/03/09 10:23:01;;;;;;;107.10;21.65;;;9.00;97.30;;;;;;5049718;28;20108;-52
2024/03/09 10:25:27;;;;;;;97.05;20.55;;;9.10;97.30;;;;;;5066263;28;20470;-52
2024/03/09 10:27:59;;;;;;;80.22;20.85;;;9.10;97.20;;;;;;5067303;28;20090;-52
2024/03/09 10:30:28;;;;;;;99.85;22.27;;;9.20;97.20;;;;;;5067428;28;20047;-52
2024/03/09 10:32:54;;;;;;;89.60;20.77;;;9.20;97.20;;;;;;5049400;28;20108;-52
2024/03/09 10:35:20;;;;;;;93.95;20.83;;;9.30;97.10;;;;;;5064393;28;20025;-51
2024/03/09 10:37:46;;;;;;;117.93;22.08;;;9.30;97.10;;;;;;5032393;28;20041;-51
2024/03/09 10:40:14;;;;;;;114.90;23.17;;;9.40;97.10;;;;;;5049211;28;20096;-51
2024/03/09 10:42:45;;;;;;;140.20;22.08;;;9.40;97.10;;;;;;5049174;28;20056;-51
2024/03/09 10:45:15;;;;;;;173.38;25.17;;;9.50;97.10;;;;;;5049145;28;20032;-51
2024/03/09 10:47:54;;;;;;;126.93;23.48;;;9.50;97.10;;;;;;5049049;28;20022;-51
2024/03/09 10:50:29;;;;;;;150.55;26.15;;;9.60;97.20;;;;;;5065750;28;20031;-51
2024/03/09 10:53:08;;;;;;;175.10;28.60;;;9.60;97.20;;;;;;5033449;28;20025;-52
2024/03/09 10:55:43;;;;;;;144.68;26.58;;;9.60;97.30;;;;;;5066516;28;20041;-51
2024/03/09 10:58:09;;;;;;;110.28;23.10;;;9.70;97.40;;;;;;5048762;28;20067;-52
2024/03/09 11:00:35;;;;;;;149.70;23.60;;;9.70;97.30;;;;;;5048645;28;20029;-52
2024/03/09 11:03:03;;;;;;;124.20;23.25;;;9.80;97.30;;;;;;5049104;28;20025;-52
2024/03/09 11:05:29;;;;;;;157.02;26.58;;;9.80;97.40;;;;;;5048710;28;20032;-52
2024/03/09 11:07:55;;;;;;;114.13;21.90;;;9.80;97.60;;;;;;5047340;28;20493;-51
2024/03/09 11:10:22;;;;;;;94.70;21.35;;;9.80;97.20;;;;;;5048917;28;20025;-52
2024/03/09 11:12:48;;;;;;;112.35;23.35;;;9.90;97.10;;;;;;5048507;28;20088;-51
2024/03/09 11:15:14;;;;;;;116.88;22.60;;;9.90;96.90;;;;;;5043566;28;20024;-52
2024/03/09 11:17:44;;;;;;;116.70;24.08;;;10.00;96.90;;;;;;5048560;28;20074;-52
2024/03/09 11:20:13;;;;;;;94.57;20.83;;;10.00;97.10;;;;;;5032090;28;20041;-51
2024/03/09 11:22:42;;;;;;;110.05;22.77;;;10.10;96.70;;;;;;5048038;28;20032;-52
2024/03/09 11:25:11;;;;;;;84.55;20.77;;;10.10;96.70;;;;;;5061991;28;20048;-52
2024/03/09 11:27:41;;;;;;;95.65;20.63;;;10.10;96.50;;;;;;5058274;28;20040;-52
2024/03/09 11:30:07;;;;;;;84.88;19.92;;;10.20;96.30;;;;;;5048096;28;20084;-52
2024/03/09 11:32:36;;;;;;;82.47;20.23;;;10.20;96.20;;;;;;5052891;28;20032;-52
2024/03/09 11:35:33;;;;;;;77.72;18.08;;;10.20;96.10;;;;;;5031640;28;20024;-52
2024/03/09 11:38:09;;;;;;;93.70;22.05;;;10.30;96.00;;;;;;5041363;28;20067;-52
2024/03/09 11:40:35;;;;;;;103.57;20.60;;;10.40;96.00;;;;;;5045317;28;20021;-52
2024/03/09 11:43:04;;;;;;;123.47;22.55;;;10.40;95.90;;;;;;5061700;28;20533;-52
2024/03/09 11:45:34;;;;;;;79.82;20.52;;;10.40;96.00;;;;;;5046757;28;20483;-52
2024/03/09 11:48:02;;;;;;;89.43;19.33;;;10.50;95.90;;;;;;5048072;28;20060;-52
2024/03/09 11:50:28;;;;;;;76.32;17.13;;;10.50;95.90;;;;;;5064749;28;20033;-52
2024/03/09 11:52:55;;;;;;;64.43;15.77;;;10.60;95.60;;;;;;5066313;28;20052;-52
2024/03/09 11:55:20;;;;;;;84.72;18.48;;;10.60;95.50;;;;;;5048220;28;20029;-52
2024/03/09 11:57:48;;;;;;;102.38;21.60;;;10.60;95.40;;;;;;5048216;28;20035;-51
2024/03/09 12:00:14;;;;;;;127.13;20.98;;;10.70;95.50;;;;;;5043361;28;20028;-52
2024/03/09 12:02:40;;;;;;;114.60;20.90;;;10.70;95.50;;;;;;5047889;28;20032;-51
2024/03/09 12:05:18;;;;;;;94.75;21.05;;;10.80;95.70;;;;;;5031028;28;20025;-52
2024/03/09 12:07:46;;;;;;;105.65;20.90;;;10.80;95.50;;;;;;5031932;28;20029;-51
2024/03/09 12:10:15;;;;;;;96.70;20.17;;;10.90;95.50;;;;;;5049973;28;20021;-52
2024/03/09 12:12:44;;;;;;;100.00;19.65;;;10.90;95.30;;;;;;5038654;28;20372;-52
2024/03/09 12:15:10;;;;;;;113.93;20.48;;;11.00;95.20;;;;;;5015260;28;20057;-52
2024/03/09 12:17:41;;;;;;;112.15;18.55;;;11.00;95.20;;;;;;5047651;28;20025;-52
2024/03/09 12:20:08;;;;;;;101.15;18.50;;;11.10;95.20;;;;;;5051101;28;20036;-52
2024/03/09 12:22:35;;;;;;;90.78;19.02;;;11.10;95.10;;;;;;5034952;28;20543;-52
2024/03/09 12:25:03;;;;;;;181.55;24.30;;;11.20;94.90;;;;;;5035498;28;20029;-52
2024/03/09 12:27:30;;;;;;;123.40;18.10;;;11.20;94.90;;;;;;5051462;28;20036;-52
2024/03/09 12:29:55;;;;;;;97.43;19.80;;;11.30;94.80;;;;;;5034816;28;20032;-52
2024/03/09 12:32:26;;;;;;;94.95;18.35;;;11.30;94.70;;;;;;5035219;28;20056;-52
2024/03/09 12:34:54;;;;;;;108.22;19.20;;;11.40;94.80;;;;;;5052406;28;20029;-52
2024/03/09 12:37:26;;;;;;;74.68;18.05;;;11.40;94.60;;;;;;5051795;28;20090;-52
2024/03/09 12:40:12;;;;;;;78.43;14.85;;;11.40;94.50;;;;;;5051277;28;20028;-52